createdAt,value
2019-02-20T00:01:49.080Z,22.06
2019-02-20T00:04:17.526Z,22.05
2019-02-20T00:06:45.946Z,22.02
2019-02-20T00:09:14.390Z,22.02
2019-02-20T00:11:42.835Z,21.99
2019-02-20T00:14:11.274Z,21.98
2019-02-20T00:16:39.690Z,21.98
2019-02-20T00:19:08.130Z,21.96
2019-02-20T00:21:36.566Z,21.94
2019-02-20T00:24:05.002Z,21.98
2019-02-20T00:26:33.429Z,22.00
2019-02-20T00:29:01.845Z,21.99
2019-02-20T00:31:30.288Z,21.98
2019-02-20T00:33:58.720Z,21.97
2019-02-20T00:36:27.139Z,21.97
2019-02-20T00:38:55.574Z,21.95
2019-02-20T00:41:24.052Z,21.97
2019-02-20T00:43:54.128Z,21.95
2019-02-20T00:46:33.374Z,21.94
2019-02-20T00:49:03.420Z,21.90
2019-02-20T00:51:39.301Z,21.93
2019-02-20T00:54:09.353Z,21.93
2019-02-20T00:56:37.980Z,21.92
2019-02-20T00:59:06.436Z,21.96
2019-02-20T01:01:34.841Z,21.92
2019-02-20T01:04:03.422Z,21.90
2019-02-20T01:06:31.856Z,21.90
2019-02-20T01:09:00.444Z,21.89
2019-02-20T01:11:28.891Z,21.88
2019-02-20T01:13:57.294Z,21.85
2019-02-20T01:16:25.792Z,21.87
2019-02-20T01:18:54.300Z,21.84
2019-02-20T01:21:22.693Z,21.88
2019-02-20T01:23:51.112Z,21.87
2019-02-20T01:26:19.675Z,21.88
2019-02-20T01:28:48.078Z,21.86
2019-02-20T01:31:16.600Z,21.88
2019-02-20T01:33:45.005Z,21.88
2019-02-20T01:36:13.438Z,21.84
2019-02-20T01:38:41.869Z,21.83
2019-02-20T01:41:10.291Z,21.82
2019-02-20T01:43:38.746Z,21.84
2019-02-20T01:46:07.166Z,21.86
2019-02-20T01:48:35.624Z,21.86
2019-02-20T01:51:04.030Z,21.87
2019-02-20T01:53:32.451Z,21.82
2019-02-20T01:56:00.927Z,21.81
2019-02-20T01:58:29.367Z,21.79
2019-02-20T02:00:57.811Z,21.80
2019-02-20T02:03:26.241Z,21.81
2019-02-20T02:05:54.665Z,21.82
2019-02-20T02:08:23.139Z,21.80
2019-02-20T02:10:51.566Z,21.77
2019-02-20T02:13:19.976Z,21.78
2019-02-20T02:15:48.567Z,21.74
2019-02-20T02:18:16.991Z,21.78
2019-02-20T02:20:46.286Z,21.77
2019-02-20T02:23:19.937Z,21.80
2019-02-20T02:25:44.847Z,21.76
2019-02-20T02:28:13.256Z,21.76
2019-02-20T02:30:41.681Z,21.77
2019-02-20T02:33:10.102Z,21.75
2019-02-20T02:35:38.519Z,21.76
2019-02-20T02:38:06.969Z,21.74
2019-02-20T02:40:35.379Z,21.75
2019-02-20T02:43:03.891Z,21.75
2019-02-20T02:45:32.299Z,21.74
2019-02-20T02:48:00.741Z,21.73
2019-02-20T02:50:29.190Z,21.72
2019-02-20T02:52:57.591Z,21.73
2019-02-20T02:55:26.031Z,21.76
2019-02-20T02:57:54.443Z,21.73
2019-02-20T03:00:22.887Z,21.71
2019-02-20T03:02:51.297Z,21.71
2019-02-20T03:05:19.733Z,21.71
2019-02-20T03:07:48.146Z,21.73
2019-02-20T03:10:16.559Z,21.71
2019-02-20T03:12:44.978Z,21.71
2019-02-20T03:15:13.426Z,21.69
2019-02-20T03:17:41.836Z,21.70
2019-02-20T03:20:10.245Z,21.68
2019-02-20T03:22:38.680Z,21.67
2019-02-20T03:25:08.057Z,21.70
2019-02-20T03:27:36.457Z,21.68
2019-02-20T03:30:07.037Z,21.69
2019-02-20T03:32:35.453Z,21.68
2019-02-20T03:35:04.745Z,21.65
2019-02-20T03:37:33.180Z,21.67
2019-02-20T03:40:01.618Z,21.73
2019-02-20T03:42:30.108Z,21.72
2019-02-20T03:44:58.550Z,21.69
2019-02-20T03:47:27.059Z,21.70
2019-02-20T03:49:55.490Z,21.68
2019-02-20T03:52:24.013Z,21.68
2019-02-20T03:54:52.422Z,21.74
2019-02-20T03:57:20.845Z,21.72
2019-02-20T03:59:49.269Z,21.74
2019-02-20T04:02:17.692Z,21.70
2019-02-20T04:04:46.176Z,21.70
2019-02-20T04:07:14.733Z,21.69
2019-02-20T04:09:43.140Z,21.68
2019-02-20T04:12:11.571Z,21.70
2019-02-20T04:14:39.980Z,21.70
2019-02-20T04:17:08.387Z,21.69
2019-02-20T04:19:36.807Z,21.70
2019-02-20T04:22:05.227Z,21.71
2019-02-20T04:24:33.651Z,21.72
2019-02-20T04:27:02.068Z,21.72
2019-02-20T04:29:30.574Z,21.74
2019-02-20T04:32:01.760Z,21.73
2019-02-20T04:34:30.209Z,21.74
2019-02-20T04:36:58.645Z,21.74
2019-02-20T04:39:27.075Z,21.72
2019-02-20T04:41:55.505Z,21.75
2019-02-20T04:44:23.911Z,21.75
2019-02-20T04:46:52.347Z,21.76
2019-02-20T04:49:20.764Z,21.74
2019-02-20T04:51:49.179Z,21.75
2019-02-20T04:54:17.623Z,21.74
2019-02-20T04:56:46.073Z,21.75
2019-02-20T04:59:14.533Z,21.76
2019-02-20T05:01:42.961Z,21.75
2019-02-20T05:04:11.385Z,21.74
2019-02-20T05:06:39.824Z,21.76
2019-02-20T05:09:08.545Z,21.74
2019-02-20T05:11:37.017Z,21.75
2019-02-20T05:14:05.450Z,21.78
2019-02-20T05:16:33.900Z,21.75
2019-02-20T05:19:02.315Z,21.75
2019-02-20T05:21:30.728Z,21.76
2019-02-20T05:23:59.180Z,21.75
2019-02-20T05:26:27.597Z,21.75
2019-02-20T05:28:56.004Z,21.74
2019-02-20T05:31:24.424Z,21.76
2019-02-20T05:33:52.860Z,21.75
2019-02-20T05:36:21.263Z,21.76
2019-02-20T05:38:49.717Z,21.74
2019-02-20T05:41:18.106Z,21.75
2019-02-20T05:43:46.592Z,21.76
2019-02-20T05:46:15.040Z,21.75
2019-02-20T05:48:43.481Z,21.75
2019-02-20T05:51:11.921Z,21.73
2019-02-20T05:53:40.359Z,21.76
2019-02-20T05:56:08.777Z,21.71
2019-02-20T05:58:37.202Z,21.68
2019-02-20T06:01:05.638Z,21.69
2019-02-20T06:03:34.075Z,21.71
2019-02-20T06:06:02.521Z,21.70
2019-02-20T06:08:30.957Z,21.68
2019-02-20T06:10:59.380Z,21.69
2019-02-20T06:13:27.806Z,21.70
2019-02-20T06:15:56.227Z,21.72
2019-02-20T06:18:24.769Z,21.71
2019-02-20T06:20:53.242Z,21.74
2019-02-20T06:23:21.675Z,21.72
2019-02-20T06:25:50.086Z,21.73
2019-02-20T06:28:18.532Z,21.71
2019-02-20T06:30:47.072Z,21.71
2019-02-20T06:33:15.490Z,21.74
2019-02-20T06:35:43.934Z,21.71
2019-02-20T06:38:12.343Z,21.73
2019-02-20T06:40:40.766Z,21.74
2019-02-20T06:43:09.185Z,21.73
2019-02-20T06:45:37.639Z,21.74
2019-02-20T06:48:06.094Z,21.75
2019-02-20T06:50:34.513Z,21.74
2019-02-20T06:53:02.945Z,21.73
2019-02-20T06:55:31.348Z,21.73
2019-02-20T06:57:59.796Z,21.74
2019-02-20T07:00:28.210Z,21.72
2019-02-20T07:02:56.635Z,21.72
2019-02-20T07:05:33.182Z,21.74
2019-02-20T07:08:10.376Z,21.74
2019-02-20T07:10:59.852Z,21.71
2019-02-20T07:13:31.437Z,21.66
2019-02-20T07:16:14.717Z,21.64
2019-02-20T07:18:55.320Z,21.66
2019-02-20T07:21:35.596Z,21.68
2019-02-20T07:24:09.970Z,21.65
2019-02-20T07:26:53.266Z,21.64
2019-02-20T07:29:30.506Z,21.67
2019-02-20T07:31:58.898Z,21.67
2019-02-20T07:34:27.360Z,21.70
2019-02-20T07:36:55.762Z,21.68
2019-02-20T07:39:24.172Z,21.68
2019-02-20T07:41:52.601Z,21.66
2019-02-20T07:44:21.048Z,21.68
2019-02-20T07:46:49.464Z,21.67
2019-02-20T07:49:17.916Z,21.70
2019-02-20T07:51:46.346Z,21.72
2019-02-20T07:54:14.787Z,21.78
2019-02-20T07:56:43.180Z,21.82
2019-02-20T07:59:11.692Z,21.80
2019-02-20T08:01:40.104Z,21.83
2019-02-20T08:04:08.525Z,21.85
2019-02-20T08:06:36.929Z,21.83
2019-02-20T08:09:06.007Z,21.85
2019-02-20T08:11:34.420Z,21.88
2019-02-20T08:14:02.857Z,21.89
2019-02-20T08:16:31.286Z,21.92
2019-02-20T08:18:59.716Z,21.95
2019-02-20T08:21:28.148Z,21.93
2019-02-20T08:23:56.576Z,21.94
2019-02-20T08:26:24.987Z,21.96
2019-02-20T08:28:53.386Z,21.97
2019-02-20T08:31:21.816Z,21.98
2019-02-20T08:33:50.266Z,21.99
2019-02-20T08:36:18.721Z,21.97
2019-02-20T08:38:47.093Z,21.98
2019-02-20T08:41:15.535Z,21.98
2019-02-20T08:43:43.947Z,22.01
2019-02-20T08:46:12.383Z,21.99
2019-02-20T08:48:40.791Z,21.99
2019-02-20T08:51:09.242Z,22.03
2019-02-20T08:53:37.677Z,22.05
2019-02-20T08:56:06.122Z,22.06
2019-02-20T08:58:34.751Z,22.06
2019-02-20T09:01:03.553Z,22.06
2019-02-20T09:03:31.999Z,22.07
2019-02-20T09:06:00.423Z,22.09
2019-02-20T09:08:28.921Z,22.12
2019-02-20T09:10:57.479Z,22.11
2019-02-20T09:13:25.956Z,22.10
2019-02-20T09:15:54.395Z,22.10
2019-02-20T09:18:23.105Z,22.06
2019-02-20T09:20:51.598Z,22.09
2019-02-20T09:23:20.019Z,22.11
2019-02-20T09:25:48.477Z,22.13
2019-02-20T09:28:16.891Z,22.14
2019-02-20T09:30:45.309Z,22.16
2019-02-20T09:33:14.093Z,22.16
2019-02-20T09:35:42.608Z,22.18
2019-02-20T09:38:11.041Z,22.20
2019-02-20T09:40:39.476Z,22.24
2019-02-20T09:43:09.522Z,22.25
2019-02-20T09:45:41.853Z,22.26
2019-02-20T09:48:08.093Z,22.24
2019-02-20T09:50:36.506Z,22.27
2019-02-20T09:53:04.950Z,22.22
2019-02-20T09:55:33.355Z,22.25
2019-02-20T09:58:01.798Z,22.24
2019-02-20T10:00:30.223Z,22.27
2019-02-20T10:02:58.643Z,22.29
2019-02-20T10:05:27.102Z,22.30
2019-02-20T10:07:55.513Z,22.30
2019-02-20T10:10:23.929Z,22.32
2019-02-20T10:12:52.373Z,22.35
2019-02-20T10:15:21.054Z,22.37
2019-02-20T10:17:49.496Z,22.39
2019-02-20T10:20:17.933Z,22.37
2019-02-20T10:22:46.447Z,22.39
2019-02-20T10:25:14.863Z,22.40
2019-02-20T10:27:43.306Z,22.43
2019-02-20T10:30:16.852Z,22.41
2019-02-20T10:32:45.290Z,22.42
2019-02-20T10:35:14.093Z,22.46
2019-02-20T10:37:42.531Z,22.49
2019-02-20T10:40:11.889Z,22.49
2019-02-20T10:42:40.325Z,22.51
2019-02-20T10:45:11.487Z,22.50
2019-02-20T10:47:40.025Z,22.52
2019-02-20T10:50:12.591Z,22.54
2019-02-20T10:52:41.033Z,22.53
2019-02-20T10:55:10.414Z,22.55
2019-02-20T10:57:38.902Z,22.53
2019-02-20T11:00:24.043Z,22.50
2019-02-20T11:02:47.332Z,22.54
2019-02-20T11:05:16.111Z,22.53
2019-02-20T11:07:44.546Z,22.56
2019-02-20T11:10:12.982Z,22.56
2019-02-20T11:12:41.427Z,22.57
2019-02-20T11:15:10.072Z,22.57
2019-02-20T11:17:38.507Z,22.60
2019-02-20T11:20:09.552Z,22.61
2019-02-20T11:22:37.965Z,22.62
2019-02-20T11:25:09.538Z,22.62
2019-02-20T11:27:39.480Z,22.62
2019-02-20T11:30:11.292Z,22.65
2019-02-20T11:32:39.739Z,22.63
2019-02-20T11:35:09.004Z,22.63
2019-02-20T11:37:37.475Z,22.64
2019-02-20T11:40:07.899Z,22.62
2019-02-20T11:42:36.328Z,22.58
2019-02-20T11:45:07.306Z,22.59
2019-02-20T11:47:35.755Z,22.57
2019-02-20T11:50:07.809Z,22.55
2019-02-20T11:52:38.303Z,22.56
2019-02-20T11:55:09.172Z,22.55
2019-02-20T11:57:37.597Z,22.54
2019-02-20T12:00:11.810Z,22.49
2019-02-20T12:02:42.127Z,22.20
2019-02-20T12:05:10.860Z,22.23
2019-02-20T12:07:39.308Z,22.35
2019-02-20T12:10:12.606Z,22.42
2019-02-20T12:12:40.926Z,22.42
2019-02-20T12:15:09.599Z,22.46
2019-02-20T12:17:38.042Z,22.45
2019-02-20T12:20:10.550Z,22.46
2019-02-20T12:22:38.974Z,22.46
2019-02-20T12:25:10.111Z,22.45
2019-02-20T12:27:38.685Z,22.44
2019-02-20T12:30:11.889Z,22.45
2019-02-20T12:32:40.384Z,22.42
2019-02-20T12:35:09.657Z,22.42
2019-02-20T12:37:38.244Z,22.44
2019-02-20T12:40:11.081Z,22.40
2019-02-20T12:42:39.542Z,22.42
2019-02-20T12:45:08.940Z,22.41
2019-02-20T12:47:37.357Z,22.42
2019-02-20T12:50:10.740Z,22.44
2019-02-20T12:52:39.163Z,22.44
2019-02-20T12:55:08.428Z,22.44
2019-02-20T12:57:36.862Z,22.44
2019-02-20T13:00:08.342Z,22.43
2019-02-20T13:02:36.765Z,22.42
2019-02-20T13:05:06.740Z,22.37
2019-02-20T13:07:35.158Z,22.40
2019-02-20T13:10:03.761Z,22.41
2019-02-20T13:12:32.179Z,22.40
2019-02-20T13:15:00.646Z,22.45
2019-02-20T13:17:29.071Z,22.48
2019-02-20T13:22:25.302Z,22.44
2019-02-20T13:24:53.740Z,22.45
2019-02-20T13:27:23.058Z,22.48
2019-02-20T13:29:51.632Z,22.47
2019-02-20T13:32:20.055Z,22.47
2019-02-20T13:34:48.495Z,22.46
2019-02-20T13:37:16.936Z,22.53
2019-02-20T13:39:45.338Z,22.54
2019-02-20T13:42:13.778Z,22.47
2019-02-20T13:44:42.212Z,22.49
2019-02-20T13:49:38.076Z,22.46
2019-02-20T13:52:06.668Z,22.45
2019-02-20T13:54:35.690Z,22.47
2019-02-20T13:57:04.276Z,22.45
2019-02-20T13:59:33.057Z,22.45
2019-02-20T14:02:01.524Z,22.47
2019-02-20T14:04:29.950Z,22.44
2019-02-20T14:06:59.746Z,22.44
2019-02-20T14:09:28.285Z,22.43
2019-02-20T14:11:56.688Z,22.40
2019-02-20T14:14:25.107Z,22.42
2019-02-20T14:16:53.914Z,22.42
2019-02-20T14:19:22.344Z,22.44
2019-02-20T14:21:50.768Z,22.41
2019-02-20T14:24:19.181Z,22.40
2019-02-20T14:26:47.626Z,22.41
2019-02-20T14:29:16.072Z,22.39
2019-02-20T14:31:44.470Z,22.39
2019-02-20T14:34:13.188Z,22.40
2019-02-20T14:36:41.640Z,22.42
2019-02-20T14:39:10.086Z,22.71
2019-02-20T14:41:38.496Z,22.58
2019-02-20T14:44:07.010Z,22.51
2019-02-20T14:46:36.327Z,22.51
2019-02-20T14:49:04.955Z,22.52
2019-02-20T14:51:33.396Z,22.52
2019-02-20T14:54:01.822Z,22.54
2019-02-20T14:56:30.252Z,22.56
2019-02-20T14:58:58.666Z,22.56
2019-02-20T15:01:27.094Z,22.58
2019-02-20T15:03:55.624Z,22.61
2019-02-20T15:06:24.066Z,22.60
2019-02-20T15:08:52.501Z,22.59
2019-02-20T15:11:20.935Z,22.58
2019-02-20T15:13:49.373Z,22.56
2019-02-20T15:16:17.810Z,22.57
2019-02-20T15:18:46.240Z,22.61
2019-02-20T15:21:14.668Z,22.63
2019-02-20T15:23:43.384Z,22.61
2019-02-20T15:26:11.803Z,22.60
2019-02-20T15:28:40.231Z,22.60
2019-02-20T15:31:08.678Z,22.56
2019-02-20T15:33:37.083Z,22.52
2019-02-20T15:36:05.506Z,22.52
2019-02-20T15:38:34.014Z,22.52
2019-02-20T15:41:02.714Z,22.53
2019-02-20T15:43:31.116Z,22.54
2019-02-20T15:45:59.627Z,22.47
2019-02-20T15:48:28.042Z,22.46
2019-02-20T15:50:56.480Z,22.46
2019-02-20T15:55:52.267Z,22.47
2019-02-20T15:58:20.973Z,22.46
2019-02-20T16:00:49.475Z,22.44
2019-02-20T16:03:17.915Z,22.45
2019-02-20T16:05:46.456Z,22.45
2019-02-20T16:08:14.941Z,22.45
2019-02-20T16:10:43.362Z,22.47
2019-02-20T16:13:11.854Z,22.37
2019-02-20T16:15:40.375Z,22.33
2019-02-20T16:18:08.804Z,22.12
2019-02-20T16:20:37.247Z,21.93
2019-02-20T16:23:05.694Z,21.87
2019-02-20T16:25:34.136Z,21.90
2019-02-20T16:28:02.626Z,21.99
2019-02-20T16:30:31.057Z,22.04
2019-02-20T16:33:00.798Z,22.10
2019-02-20T16:35:29.267Z,22.12
2019-02-20T16:37:57.715Z,22.14
2019-02-20T16:40:26.223Z,22.14
2019-02-20T16:42:54.661Z,22.12
2019-02-20T16:45:26.155Z,22.13
2019-02-20T16:47:54.927Z,22.15
2019-02-20T16:50:23.463Z,22.14
2019-02-20T16:52:51.865Z,22.15
2019-02-20T16:55:22.397Z,22.14
2019-02-20T16:57:56.847Z,22.14
2019-02-20T17:00:22.118Z,22.13
2019-02-20T17:02:50.877Z,22.12
2019-02-20T17:05:19.542Z,22.13
2019-02-20T17:07:47.987Z,22.19
2019-02-20T17:10:16.742Z,22.20
2019-02-20T17:12:45.277Z,22.19
2019-02-20T17:15:15.935Z,22.17
2019-02-20T17:17:44.359Z,22.19
2019-02-20T17:20:17.575Z,22.17
2019-02-20T17:22:46.180Z,22.20
2019-02-20T17:25:15.259Z,22.23
2019-02-20T17:27:43.764Z,22.24
2019-02-20T17:30:17.045Z,22.24
2019-02-20T17:32:46.026Z,22.28
2019-02-20T17:35:17.150Z,22.26
2019-02-20T17:37:45.886Z,22.28
2019-02-20T17:40:15.418Z,22.28
2019-02-20T17:42:44.007Z,22.29
2019-02-20T17:45:19.353Z,22.32
2019-02-20T17:47:48.072Z,22.30
2019-02-20T17:50:22.486Z,22.32
2019-02-20T17:52:50.907Z,22.35
2019-02-20T17:55:19.353Z,22.34
2019-02-20T17:57:47.767Z,22.32
2019-02-20T18:00:19.507Z,22.32
2019-02-20T18:02:47.933Z,22.32
2019-02-20T18:05:16.362Z,22.34
2019-02-20T18:07:49.706Z,22.34
2019-02-20T18:10:15.278Z,22.33
2019-02-20T18:12:43.697Z,22.34
2019-02-20T18:15:15.408Z,22.35
2019-02-20T18:17:43.839Z,22.34
2019-02-20T18:20:12.541Z,22.37
2019-02-20T18:22:40.952Z,22.38
2019-02-20T18:25:10.848Z,22.38
2019-02-20T18:27:39.237Z,22.36
2019-02-20T18:30:15.548Z,22.37
2019-02-20T18:32:43.999Z,22.33
2019-02-20T18:35:14.729Z,22.36
2019-02-20T18:37:43.147Z,22.38
2019-02-20T18:40:14.651Z,22.37
2019-02-20T18:42:43.079Z,22.37
2019-02-20T18:45:13.356Z,22.40
2019-02-20T18:47:42.003Z,22.38
2019-02-20T18:50:14.786Z,22.39
2019-02-20T18:52:43.192Z,22.38
2019-02-20T18:55:15.295Z,22.36
2019-02-20T18:57:43.740Z,22.36
2019-02-20T19:00:21.806Z,22.34
2019-02-20T19:02:50.350Z,22.34
2019-02-20T19:05:19.311Z,22.35
2019-02-20T19:07:48.047Z,22.34
2019-02-20T19:10:22.624Z,22.38
2019-02-20T19:13:15.458Z,22.36
2019-02-20T19:16:18.512Z,22.38
2019-02-20T19:19:02.083Z,22.41
2019-02-20T19:21:44.079Z,22.40
2019-02-20T19:24:31.771Z,22.43
2019-02-20T19:27:03.285Z,22.39
2019-02-20T19:29:34.776Z,22.43
2019-02-20T19:32:15.070Z,22.43
2019-02-20T19:34:55.611Z,22.44
2019-02-20T19:37:43.739Z,22.48
2019-02-20T19:40:27.246Z,22.46
2019-02-20T19:43:04.248Z,22.44
2019-02-20T19:46:06.014Z,22.47
2019-02-20T19:48:43.530Z,22.47
2019-02-20T19:56:27.795Z,22.48
2019-02-20T19:59:14.584Z,22.51
2019-02-20T20:02:11.716Z,22.49
2019-02-20T20:04:58.508Z,22.52
2019-02-20T20:07:45.299Z,22.53
2019-02-20T20:10:19.401Z,22.52
2019-02-20T20:12:56.394Z,22.49
2019-02-20T20:15:42.352Z,22.53
2019-02-20T20:18:25.176Z,22.52
2019-02-20T20:21:14.597Z,22.52
2019-02-20T20:24:05.686Z,22.51
2019-02-20T20:26:47.291Z,22.43
2019-02-20T20:29:50.407Z,22.41
2019-02-20T20:32:21.970Z,22.47
2019-02-20T20:34:56.482Z,22.47
2019-02-20T20:37:46.055Z,22.50
2019-02-20T20:45:30.463Z,22.47
2019-02-20T20:48:18.556Z,22.45
2019-02-20T20:51:11.257Z,22.49
2019-02-20T20:53:56.297Z,22.52
2019-02-20T20:56:30.588Z,22.51
2019-02-20T20:59:04.974Z,22.51
2019-02-20T21:01:45.553Z,22.49
2019-02-20T21:04:35.120Z,22.51
2019-02-20T21:07:15.629Z,22.51
2019-02-20T21:09:58.805Z,22.51
2019-02-20T21:12:47.041Z,22.49
2019-02-20T21:15:24.437Z,22.51
2019-02-20T21:18:04.827Z,22.47
2019-02-20T21:20:51.512Z,22.50
2019-02-20T21:23:40.950Z,22.49
2019-02-20T21:26:20.937Z,22.52
2019-02-20T21:29:09.355Z,22.52
2019-02-20T21:31:40.834Z,22.51
2019-02-20T21:34:21.293Z,22.51
2019-02-20T21:36:58.227Z,22.53
2019-02-20T21:39:35.599Z,22.52
2019-02-20T21:42:22.237Z,22.53
2019-02-20T21:45:11.849Z,22.52
2019-02-20T21:48:04.069Z,22.49
2019-02-20T21:50:48.139Z,22.49
2019-02-20T21:53:31.648Z,22.51
2019-02-20T21:56:05.887Z,22.53
2019-02-20T21:58:45.861Z,22.52
2019-02-20T22:01:44.395Z,22.52
2019-02-20T22:04:18.493Z,22.53
2019-02-20T22:06:49.971Z,22.48
2019-02-20T22:09:23.895Z,22.51
2019-02-20T22:12:30.245Z,22.51
2019-02-20T22:15:16.428Z,22.54
2019-02-20T22:17:59.789Z,22.53
2019-02-20T22:20:39.971Z,22.52
2019-02-20T22:23:20.489Z,22.53
2019-02-20T22:26:19.355Z,22.51
2019-02-20T22:28:53.421Z,22.51
2019-02-20T22:32:00.603Z,22.52
2019-02-20T22:34:37.185Z,22.51
2019-02-20T22:37:23.756Z,22.50
2019-02-20T22:40:13.453Z,22.53
2019-02-20T22:43:01.675Z,22.52
2019-02-20T22:45:42.273Z,22.57
2019-02-20T22:48:31.870Z,22.57
2019-02-20T22:51:11.855Z,22.56
2019-02-20T22:53:43.324Z,22.54
2019-02-20T22:56:40.225Z,22.53
2019-02-20T22:59:29.864Z,22.51
2019-02-20T23:04:57.820Z,22.46
2019-02-20T23:07:34.891Z,22.46
2019-02-20T23:10:22.525Z,22.45
2019-02-20T23:12:54.017Z,22.42
2019-02-20T23:15:22.430Z,22.43
2019-02-20T23:17:50.863Z,22.38
2019-02-20T23:20:19.259Z,22.40
2019-02-20T23:22:47.691Z,22.40
2019-02-20T23:25:16.093Z,22.38
2019-02-20T23:27:44.541Z,22.36
2019-02-20T23:30:13.388Z,22.34
2019-02-20T23:32:43.273Z,22.34
2019-02-20T23:35:11.871Z,22.35
2019-02-20T23:37:40.291Z,22.34
2019-02-20T23:40:09.970Z,22.34
2019-02-20T23:42:38.373Z,22.33
2019-02-20T23:45:08.937Z,22.32
2019-02-20T23:47:37.384Z,22.30
2019-02-20T23:50:07.644Z,22.29
2019-02-20T23:52:36.058Z,22.29
2019-02-20T23:55:06.133Z,22.26
2019-02-20T23:57:34.539Z,22.28
